createdAt,value
2018-08-28T00:00:28.352Z,15.46
2018-08-28T00:01:28.351Z,15.51
2018-08-28T00:02:28.336Z,15.47
2018-08-28T00:03:28.330Z,15.51
2018-08-28T00:04:28.317Z,15.56
2018-08-28T00:05:28.311Z,15.51
2018-08-28T00:06:28.297Z,15.53
2018-08-28T00:07:28.290Z,15.57
2018-08-28T00:08:28.278Z,15.60
2018-08-28T00:09:28.271Z,15.67
2018-08-28T00:10:28.260Z,15.53
2018-08-28T00:11:28.253Z,15.60
2018-08-28T00:12:28.241Z,15.59
2018-08-28T00:13:28.235Z,15.59
2018-08-28T00:14:28.224Z,15.56
2018-08-28T00:15:28.207Z,15.59
2018-08-28T00:16:28.206Z,15.50
2018-08-28T00:17:28.194Z,15.51
2018-08-28T00:18:28.186Z,15.47
2018-08-28T00:19:28.175Z,15.44
2018-08-28T00:20:28.160Z,15.43
2018-08-28T00:21:28.156Z,15.39
2018-08-28T00:22:28.148Z,15.44
2018-08-28T00:23:28.137Z,15.50
2018-08-28T00:24:28.128Z,15.44
2018-08-28T00:25:28.118Z,15.49
2018-08-28T00:26:28.110Z,15.49
2018-08-28T00:27:28.091Z,15.39
2018-08-28T00:28:28.085Z,15.54
2018-08-28T00:29:28.079Z,15.47
2018-08-28T00:30:28.071Z,15.46
2018-08-28T00:31:28.057Z,15.43
2018-08-28T00:32:28.051Z,15.50
2018-08-28T00:33:28.039Z,15.47
2018-08-28T00:34:28.027Z,15.39
2018-08-28T00:35:28.021Z,15.36
2018-08-28T00:36:28.015Z,15.49
2018-08-28T00:37:28.000Z,15.38
2018-08-28T00:38:27.990Z,15.38
2018-08-28T00:39:27.979Z,15.43
2018-08-28T00:40:27.974Z,15.39
2018-08-28T00:41:27.964Z,15.44
2018-08-28T00:42:27.954Z,15.32
2018-08-28T00:43:27.947Z,15.34
2018-08-28T00:44:27.934Z,15.36
2018-08-28T00:45:27.923Z,15.32
2018-08-28T00:46:27.914Z,15.34
2018-08-28T00:47:27.908Z,15.35
2018-08-28T00:48:27.891Z,15.38
2018-08-28T00:49:27.889Z,15.34
2018-08-28T00:50:27.877Z,15.32
2018-08-28T00:51:27.865Z,15.34
2018-08-28T00:52:27.938Z,15.39
2018-08-28T00:53:27.854Z,15.46
2018-08-28T00:54:27.841Z,15.34
2018-08-28T00:55:27.828Z,15.34
2018-08-28T00:56:27.818Z,15.39
2018-08-28T00:57:27.799Z,15.31
2018-08-28T00:58:27.798Z,15.32
2018-08-28T00:59:27.787Z,15.34
2018-08-28T01:00:27.775Z,15.35
2018-08-28T01:01:27.777Z,15.27
2018-08-28T01:02:27.755Z,15.32
2018-08-28T01:03:27.748Z,15.31
2018-08-28T01:04:27.741Z,15.35
2018-08-28T01:05:27.730Z,15.35
2018-08-28T01:06:27.721Z,15.35
2018-08-28T01:07:27.713Z,15.36
2018-08-28T01:08:27.697Z,15.35
2018-08-28T01:09:27.690Z,15.31
2018-08-28T01:10:27.685Z,15.29
2018-08-28T01:11:27.671Z,15.28
2018-08-28T01:12:27.661Z,15.16
2018-08-28T01:13:27.654Z,15.13
2018-08-28T01:14:27.657Z,15.09
2018-08-28T01:15:27.629Z,15.14
2018-08-28T01:16:27.623Z,15.07
2018-08-28T01:17:27.616Z,15.07
2018-08-28T01:18:27.597Z,15.03
2018-08-28T01:19:27.593Z,15.03
2018-08-28T01:20:27.582Z,15.09
2018-08-28T01:21:27.578Z,15.07
2018-08-28T01:22:27.567Z,15.10
2018-08-28T01:23:27.552Z,15.06
2018-08-28T01:24:27.542Z,15.06
2018-08-28T01:25:27.533Z,15.06
2018-08-28T01:26:27.523Z,15.02
2018-08-28T01:27:27.509Z,15.03
2018-08-28T01:28:27.506Z,15.13
2018-08-28T01:29:27.494Z,15.10
2018-08-28T01:30:27.484Z,15.11
2018-08-28T01:31:27.476Z,15.10
2018-08-28T01:32:27.463Z,15.16
2018-08-28T01:33:27.455Z,15.09
2018-08-28T01:34:27.450Z,15.03
2018-08-28T01:35:27.438Z,15.10
2018-08-28T01:36:27.428Z,15.06
2018-08-28T01:37:27.413Z,15.09
2018-08-28T01:38:27.417Z,15.03
2018-08-28T01:39:27.395Z,15.16
2018-08-28T01:40:27.391Z,15.07
2018-08-28T01:41:27.378Z,15.01
2018-08-28T01:42:27.373Z,14.98
2018-08-28T01:43:27.356Z,14.92
2018-08-28T01:44:27.348Z,14.98
2018-08-28T01:45:27.341Z,14.99
2018-08-28T01:46:27.329Z,14.95
2018-08-28T01:47:27.315Z,14.98
2018-08-28T01:48:27.305Z,14.92
2018-08-28T01:49:27.296Z,14.84
2018-08-28T01:50:27.288Z,14.80
2018-08-28T01:51:27.285Z,14.77
2018-08-28T01:52:27.268Z,14.81
2018-08-28T01:53:27.255Z,14.77
2018-08-28T01:54:27.249Z,14.83
2018-08-28T01:55:27.243Z,14.84
2018-08-28T01:56:27.229Z,14.83
2018-08-28T01:57:27.217Z,14.86
2018-08-28T01:58:27.213Z,14.77
2018-08-28T01:59:27.200Z,14.80
2018-08-28T02:00:27.186Z,14.83
2018-08-28T02:01:27.178Z,14.75
2018-08-28T02:02:27.168Z,14.81
2018-08-28T02:03:27.158Z,14.81
2018-08-28T02:04:27.146Z,14.78
2018-08-28T02:05:27.139Z,14.78
2018-08-28T02:06:27.125Z,14.80
2018-08-28T02:07:27.115Z,14.84
2018-08-28T02:08:27.111Z,14.81
2018-08-28T02:09:27.105Z,14.80
2018-08-28T02:10:27.090Z,14.78
2018-08-28T02:11:27.081Z,14.75
2018-08-28T02:12:27.071Z,14.81
2018-08-28T02:13:27.060Z,14.80
2018-08-28T02:14:27.049Z,14.78
2018-08-28T02:15:27.036Z,14.83
2018-08-28T02:16:27.030Z,14.78
2018-08-28T02:17:27.020Z,14.77
2018-08-28T02:18:27.012Z,14.77
2018-08-28T02:19:27.004Z,14.84
2018-08-28T02:20:26.992Z,14.77
2018-08-28T02:21:26.981Z,14.65
2018-08-28T02:22:26.965Z,14.60
2018-08-28T02:23:26.962Z,14.68
2018-08-28T02:24:26.953Z,14.77
2018-08-28T02:25:26.939Z,14.72
2018-08-28T02:26:26.927Z,14.62
2018-08-28T02:27:26.921Z,14.60
2018-08-28T02:28:26.909Z,14.62
2018-08-28T02:29:26.896Z,14.58
2018-08-28T02:30:26.890Z,14.55
2018-08-28T02:31:26.880Z,14.47
2018-08-28T02:32:26.869Z,14.55
2018-08-28T02:33:26.924Z,14.54
2018-08-28T02:34:26.848Z,14.54
2018-08-28T02:35:26.844Z,14.46
2018-08-28T02:36:26.826Z,14.39
2018-08-28T02:37:26.819Z,14.45
2018-08-28T02:38:26.805Z,14.45
2018-08-28T02:39:26.801Z,14.46
2018-08-28T02:40:26.791Z,14.46
2018-08-28T02:41:26.775Z,14.51
2018-08-28T02:42:26.767Z,14.50
2018-08-28T02:43:26.757Z,14.50
2018-08-28T02:44:26.749Z,14.45
2018-08-28T02:45:26.742Z,14.50
2018-08-28T02:46:26.731Z,14.46
2018-08-28T02:47:26.715Z,14.50
2018-08-28T02:48:26.710Z,14.46
2018-08-28T02:49:26.696Z,14.45
2018-08-28T02:50:26.686Z,14.46
2018-08-28T02:51:26.680Z,14.42
2018-08-28T02:52:26.666Z,14.46
2018-08-28T02:53:26.659Z,14.43
2018-08-28T02:54:26.647Z,14.40
2018-08-28T02:55:26.638Z,14.33
2018-08-28T02:56:26.631Z,14.37
2018-08-28T02:57:26.616Z,14.37
2018-08-28T02:58:26.603Z,14.37
2018-08-28T02:59:26.600Z,14.36
2018-08-28T03:00:26.589Z,14.25
2018-08-28T03:01:26.580Z,14.40
2018-08-28T03:02:26.566Z,14.43
2018-08-28T03:03:26.556Z,14.35
2018-08-28T03:04:26.546Z,14.40
2018-08-28T03:05:26.536Z,14.39
2018-08-28T03:06:26.526Z,14.24
2018-08-28T03:07:26.514Z,14.39
2018-08-28T03:08:26.501Z,14.29
2018-08-28T03:09:26.492Z,14.39
2018-08-28T03:10:26.484Z,14.36
2018-08-28T03:11:26.535Z,14.33
2018-08-28T03:12:26.466Z,14.35
2018-08-28T03:13:26.457Z,14.24
2018-08-28T03:14:26.438Z,14.27
2018-08-28T03:15:26.455Z,14.29
2018-08-28T03:16:26.422Z,14.32
2018-08-28T03:17:26.411Z,14.33
2018-08-28T03:18:26.400Z,14.24
2018-08-28T03:19:26.392Z,14.25
2018-08-28T03:20:26.391Z,14.39
2018-08-28T03:21:26.371Z,14.40
2018-08-28T03:22:26.364Z,14.27
2018-08-28T03:23:26.353Z,14.28
2018-08-28T03:24:26.340Z,14.39
2018-08-28T03:25:26.330Z,14.37
2018-08-28T03:26:26.322Z,14.27
2018-08-28T03:27:26.312Z,14.25
2018-08-28T03:28:26.298Z,14.32
2018-08-28T03:29:26.296Z,14.36
2018-08-28T03:30:26.288Z,14.40
2018-08-28T03:31:26.272Z,14.40
2018-08-28T03:32:26.260Z,14.36
2018-08-28T03:33:26.246Z,14.36
2018-08-28T03:34:26.236Z,14.40
2018-08-28T03:35:26.230Z,14.35
2018-08-28T03:36:26.229Z,14.42
2018-08-28T03:37:26.208Z,14.35
2018-08-28T03:38:26.200Z,14.36
2018-08-28T03:39:26.187Z,14.35
2018-08-28T03:40:26.177Z,14.37
2018-08-28T03:41:26.167Z,14.24
2018-08-28T03:42:26.156Z,14.35
2018-08-28T03:43:26.145Z,14.24
2018-08-28T03:44:26.131Z,14.27
2018-08-28T03:45:26.131Z,14.33
2018-08-28T03:46:26.117Z,14.28
2018-08-28T03:47:26.105Z,14.24
2018-08-28T03:48:26.095Z,14.18
2018-08-28T03:49:26.079Z,14.18
2018-08-28T03:50:26.075Z,14.04
2018-08-28T03:51:26.066Z,14.04
2018-08-28T03:52:26.053Z,14.09
2018-08-28T03:53:26.042Z,14.02
2018-08-28T03:54:26.033Z,13.92
2018-08-28T03:55:26.078Z,13.92
2018-08-28T03:56:26.008Z,13.95
2018-08-28T03:57:26.011Z,13.91
2018-08-28T03:58:25.992Z,13.92
2018-08-28T03:59:25.989Z,13.89
2018-08-28T04:00:25.970Z,13.85
2018-08-28T04:01:25.962Z,13.89
2018-08-28T04:02:25.949Z,13.99
2018-08-28T04:03:25.940Z,14.00
2018-08-28T04:04:25.927Z,14.00
2018-08-28T04:05:25.916Z,14.03
2018-08-28T04:06:25.906Z,14.00
2018-08-28T04:07:25.898Z,14.04
2018-08-28T04:08:25.887Z,14.02
2018-08-28T04:09:25.875Z,14.04
2018-08-28T04:10:25.863Z,13.99
2018-08-28T04:11:25.857Z,13.99
2018-08-28T04:12:25.843Z,14.00
2018-08-28T04:13:25.836Z,13.99
2018-08-28T04:14:25.826Z,14.02
2018-08-28T04:15:25.812Z,13.99
2018-08-28T04:16:25.812Z,14.00
2018-08-28T04:17:25.792Z,13.95
2018-08-28T04:18:25.786Z,14.02
2018-08-28T04:19:25.772Z,13.99
2018-08-28T04:20:25.762Z,14.03
2018-08-28T04:21:25.751Z,14.02
2018-08-28T04:22:25.752Z,14.00
2018-08-28T04:23:25.735Z,13.92
2018-08-28T04:24:25.723Z,14.02
2018-08-28T04:25:25.712Z,14.03
2018-08-28T04:26:25.698Z,14.02
2018-08-28T04:27:25.688Z,13.97
2018-08-28T04:28:25.685Z,14.00
2018-08-28T04:29:25.673Z,14.04
2018-08-28T04:30:25.674Z,14.04
2018-08-28T04:31:25.648Z,14.03
2018-08-28T04:32:25.641Z,14.06
2018-08-28T04:33:25.623Z,14.06
2018-08-28T04:34:25.619Z,14.00
2018-08-28T04:35:25.605Z,13.99
2018-08-28T04:36:25.600Z,14.00
2018-08-28T04:37:32.488Z,13.97
2018-08-28T04:38:25.576Z,13.89
2018-08-28T04:39:25.570Z,13.97
2018-08-28T04:40:25.556Z,13.92
2018-08-28T04:41:25.551Z,13.96
2018-08-28T04:42:25.534Z,13.95
2018-08-28T04:43:25.525Z,14.00
2018-08-28T04:44:25.511Z,13.92
2018-08-28T04:45:25.500Z,14.00
2018-08-28T04:46:25.490Z,13.95
2018-08-28T04:47:25.480Z,14.02
2018-08-28T04:48:25.493Z,13.99
2018-08-28T04:49:25.460Z,13.97
2018-08-28T04:50:25.457Z,14.04
2018-08-28T04:51:25.443Z,14.04
2018-08-28T04:52:25.434Z,14.00
2018-08-28T04:53:25.415Z,14.07
2018-08-28T04:54:25.408Z,14.07
2018-08-28T04:55:25.397Z,14.12
2018-08-28T04:56:25.391Z,14.09
2018-08-28T04:57:25.379Z,14.07
2018-08-28T04:58:25.365Z,14.06
2018-08-28T04:59:25.355Z,14.12
2018-08-28T05:00:25.351Z,14.03
2018-08-28T05:01:25.340Z,14.14
2018-08-28T05:02:25.326Z,14.02
2018-08-28T05:03:25.316Z,14.10
2018-08-28T05:04:25.304Z,14.03
2018-08-28T05:05:25.292Z,14.02
2018-08-28T05:06:25.283Z,14.02
2018-08-28T05:07:25.275Z,14.10
2018-08-28T05:08:25.258Z,14.09
2018-08-28T05:09:25.264Z,14.07
2018-08-28T05:10:25.243Z,14.04
2018-08-28T05:11:25.235Z,14.04
2018-08-28T05:12:25.215Z,14.02
2018-08-28T05:13:25.205Z,14.03
2018-08-28T05:14:25.197Z,14.02
2018-08-28T05:15:25.189Z,14.07
2018-08-28T05:16:25.175Z,14.00
2018-08-28T05:17:25.168Z,14.03
2018-08-28T05:18:25.162Z,14.07
2018-08-28T05:19:25.272Z,14.07
2018-08-28T05:20:25.139Z,14.03
2018-08-28T05:21:25.129Z,14.10
2018-08-28T05:22:25.121Z,14.04
2018-08-28T05:23:25.107Z,14.03
2018-08-28T05:24:25.095Z,14.09
2018-08-28T05:25:25.082Z,14.10
2018-08-28T05:26:25.074Z,14.04
2018-08-28T05:27:25.058Z,14.02
2018-08-28T05:28:25.052Z,14.06
2018-08-28T05:29:25.083Z,14.07
2018-08-28T05:30:25.032Z,14.02
2018-08-28T05:31:25.029Z,14.04
2018-08-28T05:32:25.013Z,14.10
2018-08-28T05:33:25.001Z,14.06
2018-08-28T05:34:24.995Z,14.15
2018-08-28T05:35:24.978Z,14.15
2018-08-28T05:36:24.972Z,14.15
2018-08-28T05:37:24.958Z,14.22
2018-08-28T05:38:24.947Z,14.21
2018-08-28T05:39:24.940Z,14.20
2018-08-28T05:40:24.922Z,14.24
2018-08-28T05:41:24.918Z,14.22
2018-08-28T05:42:24.907Z,14.25
2018-08-28T05:43:24.898Z,14.32
2018-08-28T05:44:24.894Z,14.35
2018-08-28T05:45:24.877Z,14.25
2018-08-28T05:46:24.866Z,14.29
2018-08-28T05:47:24.850Z,14.32
2018-08-28T05:48:24.845Z,14.29
2018-08-28T05:49:24.923Z,14.28
2018-08-28T05:50:24.827Z,14.39
2018-08-28T05:51:24.815Z,14.36
2018-08-28T05:52:24.803Z,14.42
2018-08-28T05:53:24.790Z,14.35
2018-08-28T05:54:24.781Z,14.46
2018-08-28T05:55:24.769Z,14.35
2018-08-28T05:56:24.763Z,14.32
2018-08-28T05:57:24.746Z,14.45
2018-08-28T05:58:24.740Z,14.42
2018-08-28T05:59:24.726Z,14.43
2018-08-28T06:00:24.718Z,14.45
2018-08-28T06:01:24.714Z,14.45
2018-08-28T06:02:24.704Z,14.40
2018-08-28T06:03:24.827Z,14.42
2018-08-28T06:04:24.680Z,14.46
2018-08-28T06:05:24.669Z,14.40
2018-08-28T06:06:24.657Z,14.43
2018-08-28T06:07:24.647Z,14.50
2018-08-28T06:08:24.639Z,14.45
2018-08-28T06:09:24.625Z,14.45
2018-08-28T06:10:24.621Z,14.43
2018-08-28T06:11:24.607Z,14.50
2018-08-28T06:12:24.593Z,14.43
2018-08-28T06:13:24.589Z,14.55
2018-08-28T06:14:24.574Z,14.54
2018-08-28T06:15:24.568Z,14.60
2018-08-28T06:16:24.553Z,14.54
2018-08-28T06:17:24.539Z,14.60
2018-08-28T06:18:24.535Z,14.58
2018-08-28T06:19:24.525Z,14.58
2018-08-28T06:20:24.511Z,14.57
2018-08-28T06:21:24.502Z,14.62
2018-08-28T06:22:24.495Z,14.58
2018-08-28T06:23:24.478Z,14.52
2018-08-28T06:24:24.471Z,14.58
2018-08-28T06:25:24.456Z,14.54
2018-08-28T06:26:24.531Z,14.52
2018-08-28T06:27:24.440Z,14.60
2018-08-28T06:28:24.434Z,14.64
2018-08-28T06:29:24.421Z,14.72
2018-08-28T06:30:24.411Z,14.60
2018-08-28T06:31:24.966Z,14.72
2018-08-28T06:32:24.392Z,14.75
2018-08-28T06:33:24.381Z,14.92
2018-08-28T06:34:24.370Z,14.95
2018-08-28T06:35:24.359Z,15.02
2018-08-28T06:36:24.353Z,15.16
2018-08-28T06:37:24.360Z,15.17
2018-08-28T06:38:24.338Z,15.20
2018-08-28T06:39:24.323Z,15.35
2018-08-28T06:40:24.303Z,15.38
2018-08-28T06:41:24.298Z,15.56
2018-08-28T06:42:24.284Z,15.60
2018-08-28T06:43:24.284Z,15.53
2018-08-28T06:44:24.267Z,15.69
2018-08-28T06:45:24.266Z,15.69
2018-08-28T06:46:24.252Z,15.87
2018-08-28T06:47:24.240Z,15.94
2018-08-28T06:48:24.230Z,16.01
2018-08-28T06:49:24.249Z,16.14
2018-08-28T06:50:24.208Z,16.14
2018-08-28T06:51:24.201Z,16.23
2018-08-28T06:52:24.191Z,16.33
2018-08-28T06:53:24.180Z,16.33
2018-08-28T06:54:24.171Z,16.48
2018-08-28T06:55:24.166Z,16.48
2018-08-28T06:56:24.149Z,16.60
2018-08-28T06:57:24.137Z,16.64
2018-08-28T06:58:24.129Z,16.76
2018-08-28T06:59:24.121Z,16.82
2018-08-28T07:00:24.114Z,16.96
2018-08-28T07:01:24.101Z,17.01
2018-08-28T07:02:24.150Z,17.04
2018-08-28T07:03:24.084Z,17.07
2018-08-28T07:04:24.076Z,17.21
2018-08-28T07:05:24.069Z,17.19
2018-08-28T07:06:24.054Z,17.31
2018-08-28T07:07:24.042Z,17.36
2018-08-28T07:08:24.036Z,17.33
2018-08-28T07:09:24.023Z,17.34
2018-08-28T07:10:24.092Z,17.37
2018-08-28T07:11:24.012Z,17.38
2018-08-28T07:12:23.997Z,17.56
2018-08-28T07:13:23.987Z,17.51
2018-08-28T07:14:23.977Z,17.56
2018-08-28T07:15:23.969Z,17.72
2018-08-28T07:16:23.963Z,17.72
2018-08-28T07:17:23.948Z,17.74
2018-08-28T07:18:23.943Z,17.78
2018-08-28T07:19:23.932Z,17.84
2018-08-28T07:20:23.924Z,17.87
2018-08-28T07:21:23.907Z,17.93
2018-08-28T07:22:23.908Z,17.93
2018-08-28T07:23:23.897Z,18.03
2018-08-28T07:24:23.888Z,18.08
2018-08-28T07:25:23.882Z,18.11
2018-08-28T07:26:23.871Z,18.15
2018-08-28T07:27:23.862Z,18.27
2018-08-28T07:28:23.848Z,18.25
2018-08-28T07:29:23.844Z,18.37
2018-08-28T07:30:23.834Z,18.47
2018-08-28T07:31:23.863Z,18.52
2018-08-28T07:32:23.822Z,18.57
2018-08-28T07:33:23.809Z,18.65
2018-08-28T07:34:23.802Z,18.65
2018-08-28T07:35:23.799Z,18.69
2018-08-28T07:36:23.784Z,18.69
2018-08-28T07:37:23.784Z,18.80
2018-08-28T07:38:23.767Z,18.82
2018-08-28T07:39:23.753Z,18.92
2018-08-28T07:40:23.745Z,18.91
2018-08-28T07:41:23.737Z,18.99
2018-08-28T07:42:23.733Z,18.98
2018-08-28T07:43:23.722Z,18.94
2018-08-28T07:44:23.714Z,18.99
2018-08-28T07:45:23.708Z,19.04
2018-08-28T07:46:23.697Z,19.16
2018-08-28T07:47:23.688Z,19.18
2018-08-28T07:48:23.742Z,19.22
2018-08-28T07:49:23.670Z,19.28
2018-08-28T07:50:23.666Z,19.39
2018-08-28T07:51:23.659Z,19.41
2018-08-28T07:52:23.652Z,19.36
2018-08-28T07:53:23.635Z,19.47
2018-08-28T07:54:23.629Z,19.51
2018-08-28T07:55:23.620Z,19.61
2018-08-28T07:56:23.618Z,19.66
2018-08-28T07:57:23.607Z,19.69
2018-08-28T07:58:23.598Z,19.71
2018-08-28T07:59:23.591Z,19.78
2018-08-28T08:00:23.582Z,19.83
2018-08-28T08:01:23.611Z,19.91
2018-08-28T08:02:23.569Z,19.86
2018-08-28T08:03:23.557Z,19.88
2018-08-28T08:04:23.554Z,19.88
2018-08-28T08:05:23.540Z,19.91
2018-08-28T08:06:23.531Z,20.01
2018-08-28T08:07:23.523Z,20.05
2018-08-28T08:08:23.519Z,20.08
2018-08-28T08:09:23.506Z,20.26
2018-08-28T08:10:23.564Z,20.21
2018-08-28T08:11:23.491Z,20.33
2018-08-28T08:12:23.493Z,20.31
2018-08-28T08:13:23.473Z,20.38
2018-08-28T08:14:23.470Z,20.43
2018-08-28T08:15:23.461Z,20.55
2018-08-28T08:16:23.457Z,20.66
2018-08-28T08:17:23.443Z,20.73
2018-08-28T08:18:23.437Z,20.66
2018-08-28T08:19:23.429Z,20.74
2018-08-28T08:20:23.424Z,20.79
2018-08-28T08:21:23.419Z,20.82
2018-08-28T08:22:23.461Z,20.76
2018-08-28T08:23:23.400Z,20.76
2018-08-28T08:24:23.395Z,20.84
2018-08-28T08:25:23.388Z,20.85
2018-08-28T08:26:23.379Z,20.91
2018-08-28T08:27:23.373Z,20.84
2018-08-28T08:28:23.433Z,20.84
2018-08-28T08:29:23.355Z,20.88
2018-08-28T08:30:23.348Z,20.89
2018-08-28T08:31:23.348Z,20.99
2018-08-28T08:32:23.334Z,20.99
2018-08-28T08:33:23.322Z,21.03
2018-08-28T08:34:23.318Z,20.91
2018-08-28T08:35:23.417Z,20.84
2018-08-28T08:36:23.304Z,20.87
2018-08-28T08:37:23.295Z,20.69
2018-08-28T08:38:23.293Z,20.73
2018-08-28T08:39:23.287Z,20.73
2018-08-28T08:40:23.275Z,20.70
2018-08-28T08:41:23.305Z,20.82
2018-08-28T08:42:23.263Z,20.88
2018-08-28T08:43:23.255Z,20.88
2018-08-28T08:44:23.243Z,20.84
2018-08-28T08:45:23.238Z,20.89
2018-08-28T08:46:23.230Z,20.94
2018-08-28T08:47:23.230Z,20.84
2018-08-28T08:48:23.220Z,20.92
2018-08-28T08:49:23.208Z,20.76
2018-08-28T08:50:23.200Z,20.84
2018-08-28T08:51:23.194Z,20.89
2018-08-28T08:52:23.188Z,20.95
2018-08-28T08:53:23.183Z,20.82
2018-08-28T08:54:23.173Z,20.99
2018-08-28T08:55:23.169Z,20.94
2018-08-28T08:56:23.158Z,20.89
2018-08-28T08:57:23.217Z,20.91
2018-08-28T08:58:23.146Z,20.94
2018-08-28T08:59:23.136Z,20.91
2018-08-28T09:00:23.131Z,20.98
2018-08-28T09:01:23.120Z,21.01
2018-08-28T09:02:23.120Z,21.03
2018-08-28T09:03:23.108Z,21.07
2018-08-28T09:04:23.102Z,21.17
2018-08-28T09:05:23.098Z,21.28
2018-08-28T09:06:23.089Z,21.37
2018-08-28T09:07:23.089Z,21.37
2018-08-28T09:08:23.082Z,21.44
2018-08-28T09:09:23.067Z,21.44
2018-08-28T09:10:23.057Z,21.52
2018-08-28T09:11:23.049Z,21.56
2018-08-28T09:12:23.058Z,21.54
2018-08-28T09:13:23.079Z,21.64
2018-08-28T09:14:23.034Z,21.71
2018-08-28T09:15:23.024Z,21.69
2018-08-28T09:16:23.019Z,21.77
2018-08-28T09:17:23.008Z,21.86
2018-08-28T09:18:23.000Z,21.96
2018-08-28T09:19:23.077Z,22.05
2018-08-28T09:20:22.986Z,22.07
2018-08-28T09:21:22.981Z,22.14
2018-08-28T09:22:22.978Z,22.12
2018-08-28T09:23:22.970Z,22.14
2018-08-28T09:24:22.959Z,22.00
2018-08-28T09:25:22.951Z,22.06
2018-08-28T09:26:22.949Z,22.12
2018-08-28T09:27:22.943Z,22.14
2018-08-28T09:28:22.935Z,22.20
2018-08-28T09:29:22.926Z,22.28
2018-08-28T09:30:22.923Z,22.30
2018-08-28T09:31:22.922Z,22.37
2018-08-28T09:32:22.926Z,22.40
2018-08-28T09:33:22.907Z,22.45
2018-08-28T09:34:22.895Z,22.52
2018-08-28T09:35:22.892Z,22.43
2018-08-28T09:36:22.881Z,22.46
2018-08-28T09:37:22.879Z,22.46
2018-08-28T09:38:22.875Z,22.42
2018-08-28T09:39:22.865Z,22.61
2018-08-28T09:40:22.858Z,22.57
2018-08-28T09:41:22.845Z,22.60
2018-08-28T09:42:22.852Z,22.73
2018-08-28T09:43:22.839Z,22.68
2018-08-28T09:44:22.828Z,22.75
2018-08-28T09:45:22.823Z,22.76
2018-08-28T09:46:22.816Z,22.64
2018-08-28T09:47:22.815Z,22.62
2018-08-28T09:48:22.872Z,22.76
2018-08-28T09:49:22.803Z,22.79
2018-08-28T09:50:22.876Z,22.76
2018-08-28T09:51:22.787Z,22.73
2018-08-28T09:52:22.778Z,22.79
2018-08-28T09:53:22.768Z,22.82
2018-08-28T09:54:22.764Z,22.82
2018-08-28T09:55:22.763Z,22.90
2018-08-28T09:56:22.750Z,22.86
2018-08-28T09:57:22.752Z,22.95
2018-08-28T09:58:22.741Z,23.05
2018-08-28T09:59:22.732Z,23.05
2018-08-28T10:00:22.731Z,23.05
2018-08-28T10:01:22.721Z,23.13
2018-08-28T10:02:22.715Z,23.22
2018-08-28T10:03:22.710Z,23.25
2018-08-28T10:04:22.701Z,23.32
2018-08-28T10:05:22.696Z,23.43
2018-08-28T10:06:22.691Z,23.46
2018-08-28T10:07:22.680Z,23.38
2018-08-28T10:08:22.684Z,23.33
2018-08-28T10:09:22.668Z,23.28
2018-08-28T10:10:22.665Z,23.25
2018-08-28T10:11:22.658Z,23.28
2018-08-28T10:12:22.659Z,23.33
2018-08-28T10:13:22.646Z,23.47
2018-08-28T10:14:22.647Z,23.43
2018-08-28T10:15:22.636Z,23.55
2018-08-28T10:16:22.628Z,23.63
2018-08-28T10:17:22.641Z,23.72
2018-08-28T10:18:22.618Z,23.84
2018-08-28T10:19:22.618Z,23.72
2018-08-28T10:20:22.604Z,23.76
2018-08-28T10:21:22.595Z,23.76
2018-08-28T10:22:22.602Z,23.84
2018-08-28T10:23:22.589Z,23.79
2018-08-28T10:24:22.584Z,23.88
2018-08-28T10:25:22.575Z,23.85
2018-08-28T10:26:22.571Z,23.85
2018-08-28T10:27:22.567Z,23.94
2018-08-28T10:28:22.557Z,23.98
2018-08-28T10:29:22.556Z,24.06
2018-08-28T10:30:22.634Z,24.12
2018-08-28T10:31:22.544Z,24.15
2018-08-28T10:32:22.537Z,24.10
2018-08-28T10:33:22.527Z,24.21
2018-08-28T10:34:22.525Z,24.18
2018-08-28T10:35:22.516Z,24.18
2018-08-28T10:36:22.512Z,24.16
2018-08-28T10:37:22.510Z,24.27
2018-08-28T10:38:22.504Z,24.22
2018-08-28T10:39:22.495Z,24.31
2018-08-28T10:40:22.496Z,24.22
2018-08-28T10:41:22.491Z,24.25
2018-08-28T10:42:22.492Z,24.37
2018-08-28T10:43:22.477Z,24.20
2018-08-28T10:44:22.467Z,24.15
2018-08-28T10:45:22.464Z,24.12
2018-08-28T10:46:22.525Z,24.20
2018-08-28T10:47:22.449Z,24.32
2018-08-28T10:48:22.445Z,24.35
2018-08-28T10:49:22.440Z,24.40
2018-08-28T10:50:22.437Z,24.42
2018-08-28T10:51:22.428Z,24.45
2018-08-28T10:52:22.424Z,24.47
2018-08-28T10:53:22.424Z,24.53
2018-08-28T10:54:22.417Z,24.52
2018-08-28T10:55:22.406Z,24.57
2018-08-28T10:56:22.401Z,24.60
2018-08-28T10:57:22.402Z,24.57
2018-08-28T10:58:22.386Z,24.58
2018-08-28T10:59:22.399Z,24.61
2018-08-28T11:00:22.380Z,24.52
2018-08-28T11:01:22.385Z,24.71
2018-08-28T11:02:22.376Z,24.76
2018-08-28T11:03:22.364Z,24.83
2018-08-28T11:04:22.396Z,24.81
2018-08-28T11:05:22.360Z,24.85
2018-08-28T11:06:22.347Z,24.90
2018-08-28T11:07:22.340Z,24.88
2018-08-28T11:08:22.343Z,24.88
2018-08-28T11:09:22.335Z,24.98
2018-08-28T11:10:22.327Z,25.06
2018-08-28T11:11:22.323Z,25.06
2018-08-28T11:12:22.323Z,25.10
2018-08-28T11:13:22.313Z,25.18
2018-08-28T11:14:22.307Z,25.20
2018-08-28T11:15:22.304Z,25.35
2018-08-28T11:16:22.297Z,25.45
2018-08-28T11:17:22.291Z,25.32
2018-08-28T11:18:22.287Z,25.46
2018-08-28T11:19:22.280Z,25.46
2018-08-28T11:20:22.281Z,25.40
2018-08-28T11:21:22.278Z,25.46
2018-08-28T11:22:22.356Z,25.64
2018-08-28T11:23:22.264Z,25.61
2018-08-28T11:24:22.261Z,25.64
2018-08-28T11:25:22.247Z,25.61
2018-08-28T11:26:22.248Z,25.62
2018-08-28T11:27:22.245Z,25.60
2018-08-28T11:28:22.239Z,25.61
2018-08-28T11:29:22.235Z,25.67
2018-08-28T11:30:22.228Z,25.72
2018-08-28T11:31:22.272Z,25.67
2018-08-28T11:32:22.234Z,25.73
2018-08-28T11:33:22.216Z,25.70
2018-08-28T11:34:22.209Z,25.85
2018-08-28T11:35:22.209Z,25.87
2018-08-28T11:36:22.202Z,25.90
2018-08-28T11:37:22.195Z,25.90
2018-08-28T11:38:22.205Z,25.88
2018-08-28T11:39:22.248Z,26.01
2018-08-28T11:40:22.179Z,26.09
2018-08-28T11:41:22.183Z,26.01
2018-08-28T11:42:22.177Z,26.07
2018-08-28T11:43:22.169Z,26.15
2018-08-28T11:44:22.162Z,26.26
2018-08-28T11:45:22.158Z,26.26
2018-08-28T11:46:22.153Z,26.17
2018-08-28T11:47:22.153Z,26.07
2018-08-28T11:48:22.165Z,26.09
2018-08-28T11:49:22.141Z,26.02
2018-08-28T11:50:22.135Z,26.13
2018-08-28T11:51:22.129Z,26.13
2018-08-28T11:52:22.131Z,26.10
2018-08-28T11:53:22.140Z,26.12
2018-08-28T11:54:22.117Z,26.21
2018-08-28T11:55:22.117Z,26.15
2018-08-28T11:56:22.109Z,26.21
2018-08-28T11:57:22.114Z,26.23
2018-08-28T11:58:22.104Z,26.33
2018-08-28T11:59:22.098Z,26.36
2018-08-28T12:00:22.098Z,26.43
2018-08-28T12:01:22.090Z,26.39
2018-08-28T12:02:22.084Z,26.45
2018-08-28T12:03:22.082Z,26.54
2018-08-28T12:04:22.077Z,26.35
2018-08-28T12:05:22.126Z,26.54
2018-08-28T12:06:22.065Z,26.52
2018-08-28T12:07:22.124Z,26.60
2018-08-28T12:08:22.061Z,26.60
2018-08-28T12:09:22.052Z,26.70
2018-08-28T12:10:22.052Z,26.70
2018-08-28T12:11:22.039Z,26.84
2018-08-28T12:12:22.047Z,26.84
2018-08-28T12:13:22.042Z,26.76
2018-08-28T12:14:22.035Z,26.67
2018-08-28T12:15:22.029Z,26.81
2018-08-28T12:16:22.033Z,26.91
2018-08-28T12:17:22.021Z,26.89
2018-08-28T12:18:22.018Z,26.94
2018-08-28T12:19:22.024Z,26.99
2018-08-28T12:20:22.069Z,26.99
2018-08-28T12:21:22.008Z,27.09
2018-08-28T12:22:22.008Z,27.10
2018-08-28T12:23:21.996Z,27.25
2018-08-28T12:24:22.000Z,27.21
2018-08-28T12:25:21.993Z,27.21
2018-08-28T12:26:21.981Z,27.19
2018-08-28T12:27:21.987Z,27.27
2018-08-28T12:28:21.984Z,27.25
2018-08-28T12:29:21.976Z,27.28
2018-08-28T12:30:21.977Z,27.37
2018-08-28T12:31:21.966Z,27.39
2018-08-28T12:32:21.963Z,27.47
2018-08-28T12:33:21.964Z,27.55
2018-08-28T12:34:21.954Z,27.57
2018-08-28T12:35:21.958Z,27.72
2018-08-28T12:36:21.950Z,27.69
2018-08-28T12:37:21.948Z,27.70
2018-08-28T12:38:21.943Z,27.78
2018-08-28T12:39:21.938Z,27.81
2018-08-28T12:40:21.940Z,27.74
2018-08-28T12:41:21.934Z,27.77
2018-08-28T12:42:21.928Z,27.65
2018-08-28T12:43:21.933Z,27.60
2018-08-28T12:44:21.921Z,27.50
2018-08-28T12:45:21.919Z,27.60
2018-08-28T12:46:21.918Z,27.63
2018-08-28T12:47:21.908Z,27.67
2018-08-28T12:48:21.907Z,27.78
2018-08-28T12:49:21.897Z,27.88
2018-08-28T12:50:21.903Z,27.85
2018-08-28T12:51:22.178Z,27.94
2018-08-28T12:52:21.901Z,27.84